Terminal Aerodrome Forecast
Issued by NWS

Home | Current Version | Previous Version | Text Only | Print | Product List | Glossary On
Versions: 1 2 3 4 5 6 7 8 9 10 11 12 13 14 15 16 17 18 19 20 21 22 23 24 25 26 27 28 29 30
102
FTUS43 KDLH 181136
TAFHYR
TAF
KHYR 181136Z 1812/1912 21004KT P6SM SCT250
      TEMPO 1813/1816 4SM -SN BR BKN025
     FM181600 23006KT P6SM BKN025
     FM182200 22005KT P6SM SCT060
     FM190500 VRB02KT 4SM BR SCT060=

USA.gov is the U.S. government's official web portal to all federal, state and local government web resources and services.